ADDS METAR Data INFO
IDs: Format: Raw Decoded Include TAF

Data at: 0244 UTC 17 Jan 2018

KFCM 170153Z 24006KT 10SM CLR M18/M21 A3057 RMK AO2 SLP378 T11781211
KFCM 170053Z 23006KT 10SM CLR M18/M21 A3058 RMK AO2 SLP382 T11781211
KFCM 162353Z 24005KT 10SM CLR M17/M21 A3060 RMK AO2 SLP389 T11721211 11156 21172 58008
KFCM 162253Z 23005KT 10SM CLR M16/M21 A3061 RMK AO2 SLP391 T11611206
KFCM 162153Z 26006KT 10SM CLR M16/M21 A3062 RMK AO2 SLP394 T11561206
KFCM 162053Z 25007KT 10SM CLR M16/M21 A3063 RMK AO2 SLP397 T11561206 56013
KFCM 161953Z 26008KT 10SM SCT012 M16/M20 A3064 RMK AO2 SLP400 T11561200
KFCM 161853Z 25007KT 10SM FEW013 M16/M21 A3064 RMK AO2 SLP403 T11561206
KFCM 161753Z 28004KT 10SM CLR M16/M21 A3067 RMK AO2 SLP410 T11561206 11156 21178 58004
KFCM 161722Z 29005KT 10SM SCT012 M16/M21 A3068 RMK AO2 T11611206
KFCM 161653Z VRB05KT 10SM OVC012 M17/M21 A3068 RMK AO2 SLP416 T11671206
KFCM 161553Z COR 30006KT 10SM BKN014 M18/M21 A3069 RMK AO2 SLP419 T11781211
KFCM 161453Z 32010KT 10SM OVC011 M18/M21 A3068 RMK AO2 SLP415 T11781206 51008
KFCM 161353Z 32006KT 10SM OVC011 M18/M21 A3067 RMK AO2 SLP411 T11781206
KFCM 161253Z 32011KT 10SM OVC011 M17/M20 A3067 RMK AO2 SLP411 T11721200
KFCM 161153Z 31007KT 10SM OVC012 M17/M20 A3065 RMK AO2 SLP405 T11721200 11172 21183 53009
KFCM 161104Z AUTO 32009KT 10SM OVC013 M17/M20 A3064 RMK AO2 T11721200
KFCM 161053Z AUTO 33007KT 10SM OVC015 M18/M20 A3064 RMK AO2 SLP400 T11781200
KFCM 161011Z AUTO 33007KT 10SM BKN017 M18/M21 A3063 RMK AO2 T11781206
KFCM 160953Z AUTO 32007KT 10SM SCT016 M18/M21 A3063 RMK AO2 SLP397 T11831206
KFCM 160949Z AUTO 32007KT 10SM SCT016 M18/M21 A3063 RMK AO2
KFCM 160932Z AUTO 31007KT 10SM BKN016 M18/M21 A3062 RMK AO2 T11831211
KFCM 160853Z AUTO 32008KT 10SM CLR M18/M21 A3061 RMK AO2 SLP391 T11781211 53010
KFCM 160753Z AUTO 33009KT 10SM CLR M18/M21 A3060 RMK AO2 SLP386 T11781211
KFCM 160653Z AUTO 33009KT 10SM SCT065 M18/M22 A3059 RMK AO2 SLP383 T11781217
KFCM 160553Z AUTO 32009KT 10SM SCT016 BKN070 M17/M21 A3058 RMK AO2 SLP380 60000 T11721211 11156 21172 411171172 51013
KFCM 160511Z AUTO 32011KT 10SM BKN019 BKN065 M17/M21 A3057 RMK AO2 T11721211
KFCM 160453Z AUTO 34009KT 10SM FEW021 BKN065 M17/M21 A3058 RMK AO2 SLP379 T11721211
KFCM 160432Z AUTO 32010KT 10SM SCT021 SCT060 M17/M21 A3057 RMK AO2 T11721211
KFCM 160353Z AUTO 33012KT 10SM OVC021 M17/M21 A3056 RMK AO2 SNE06 SLP374 P0000 T11671211
KFCM 160321Z AUTO 33009KT 9SM BKN023 OVC040 M17/M21 A3055 RMK AO2 SNE06 P0000 T11671211
KFCM 160253Z AUTO 33012G19KT 4SM -SN FEW028 OVC032 M17/M21 A3054 RMK AO2 SNB14 SLP367 P0000 60000 T11671211 53014
KFCM 160153Z 34013KT 10SM FEW016 OVC045 M16/M21 A3052 RMK AO2 SNB07E24 SLP360 P0000 T11611206
KFCM 160146Z 34012KT 9SM SCT020 OVC045 M16/M21 A3052 RMK AO2 SNB07E24 P0000 T11611206
KFCM 160053Z 33012G20KT 10SM OVC026 M16/M21 A3051 RMK AO2 SLP356 T11611211
KFCM 152353Z 32013G18KT 10SM BKN027 OVC033 M16/M21 A3050 RMK AO2 SLP351 T11611211 11150 21161 53025
KFCM 152253Z 32009KT 10SM FEW044 M16/M21 A3047 RMK AO2 SLP342 T11611211
KFCM 152153Z AUTO 32011KT 10SM FEW031 BKN070 BKN080 M16/M21 A3044 RMK AO2 SLP332 T11561211
KFCM 152053Z AUTO 32016G24KT 5SM HZ BKN035 OVC047 M16/M21 A3042 RMK AO2 SLP324 T11561211 53014
KFCM 152022Z 32017KT 4SM HZ BKN030 BKN036 OVC044 M16/M21 A3041 RMK AO2 T11561206
KFCM 151953Z 31016G21KT 6SM HZ BKN025 OVC039 M16/M21 A3039 RMK AO2 SLP315 T11561206
KFCM 151938Z 32015G23KT 6SM HZ BKN027 OVC039 M16/M21 A3040 RMK AO2 T11561211
KFCM 151926Z 34013G23KT 7SM FEW024 BKN031 OVC039 M16/M21 A3039 RMK AO2 T11561211
KFCM 151853Z 31014KT 10SM BKN028 M16/M21 A3040 RMK AO2 SLP314 T11561211
KFCM 151837Z 31013KT 10SM FEW023 BKN030 OVC085 M16/M21 A3040 RMK AO2 T11561211
KFCM 151827Z 33014G21KT 9SM FEW021 BKN028 OVC085 M16/M21 A3040 RMK AO2 T11611211
KFCM 151753Z 34014G22KT 5SM HZ FEW023 BKN034 OVC085 M16/M21 A3038 RMK AO2 SLP308 T11611211 11150 21167 51012
KFCM 151653Z 34011G21KT 8SM FEW032 OVC080 M16/M21 A3037 RMK AO2 SLP307 T11611211
KFCM 151553Z 33016G22KT 8SM FEW044 OVC080 M17/M22 A3037 RMK AO2 SLP305 T11671217
KFCM 151453Z 33016KT 9SM OVC075 M17/M21 A3034 RMK AO2 SLP295 T11671206 51030